<?xml version="1.0" encoding="UTF-8" ?>
<gpx version="1.1" xmlns:xsi="http://www.w3.org/2001/XMLSchema-instance" 
    xmlns="http://www.topografix.com/GPX/1/1" 
    xsi:schemaLocation="http://www.topografix.com/GPX/1/1 http://www.topografix.com/GPX/1/1/gpx.xsd" 
    creator="Openrunner - https://www.openrunner.com" >	<trk>
						<name>14984156-Variante du Sentier Botanique</name>
						<trkseg>
					<trkpt lat="45.653500" lon="4.379120">
						<ele>566</ele>
						<time>2022-06-18T08:29:44Z</time>
					</trkpt>
					<trkpt lat="45.653410" lon="4.379060">
						<ele>567</ele>
						<time>2022-06-18T08:29:57Z</time>
					</trkpt>
					<trkpt lat="45.653400" lon="4.379360">
						<ele>567</ele>
						<time>2022-06-18T08:30:25Z</time>
					</trkpt>
					<trkpt lat="45.653260" lon="4.380000">
						<ele>568</ele>
						<time>2022-06-18T08:31:28Z</time>
					</trkpt>
					<trkpt lat="45.653180" lon="4.380240">
						<ele>567</ele>
						<time>2022-06-18T08:31:53Z</time>
					</trkpt>
					<trkpt lat="45.652820" lon="4.381020">
						<ele>564</ele>
						<time>2022-06-18T08:33:20Z</time>
					</trkpt>
					<trkpt lat="45.652690" lon="4.381270">
						<ele>563</ele>
						<time>2022-06-18T08:33:49Z</time>
					</trkpt>
					<trkpt lat="45.652200" lon="4.381980">
						<ele>563</ele>
						<time>2022-06-18T08:35:22Z</time>
					</trkpt>
					<trkpt lat="45.651950" lon="4.381930">
						<ele>563</ele>
						<time>2022-06-18T08:35:56Z</time>
					</trkpt>
					<trkpt lat="45.651460" lon="4.382070">
						<ele>559</ele>
						<time>2022-06-18T08:37:02Z</time>
					</trkpt>
					<trkpt lat="45.651310" lon="4.382200">
						<ele>557</ele>
						<time>2022-06-18T08:37:26Z</time>
					</trkpt>
					<trkpt lat="45.651190" lon="4.382330">
						<ele>556</ele>
						<time>2022-06-18T08:37:46Z</time>
					</trkpt>
					<trkpt lat="45.651030" lon="4.382630">
						<ele>556</ele>
						<time>2022-06-18T08:38:21Z</time>
					</trkpt>
					<trkpt lat="45.650790" lon="4.382930">
						<ele>556</ele>
						<time>2022-06-18T08:39:04Z</time>
					</trkpt>
					<trkpt lat="45.650700" lon="4.383080">
						<ele>557</ele>
						<time>2022-06-18T08:39:22Z</time>
					</trkpt>
					<trkpt lat="45.650590" lon="4.383410">
						<ele>559</ele>
						<time>2022-06-18T08:39:56Z</time>
					</trkpt>
					<trkpt lat="45.650420" lon="4.384210">
						<ele>562</ele>
						<time>2022-06-18T08:41:14Z</time>
					</trkpt>
					<trkpt lat="45.650240" lon="4.384560">
						<ele>561</ele>
						<time>2022-06-18T08:41:55Z</time>
					</trkpt>
					<trkpt lat="45.650100" lon="4.385000">
						<ele>560</ele>
						<time>2022-06-18T08:42:40Z</time>
					</trkpt>
					<trkpt lat="45.649920" lon="4.385750">
						<ele>562</ele>
						<time>2022-06-18T08:43:54Z</time>
					</trkpt>
					<trkpt lat="45.649910" lon="4.385920">
						<ele>562</ele>
						<time>2022-06-18T08:44:10Z</time>
					</trkpt>
					<trkpt lat="45.650060" lon="4.386600">
						<ele>562</ele>
						<time>2022-06-18T08:45:16Z</time>
					</trkpt>
					<trkpt lat="45.650050" lon="4.386670">
						<ele>562</ele>
						<time>2022-06-18T08:45:23Z</time>
					</trkpt>
					<trkpt lat="45.649850" lon="4.386960">
						<ele>564</ele>
						<time>2022-06-18T08:46:01Z</time>
					</trkpt>
					<trkpt lat="45.649770" lon="4.387130">
						<ele>566</ele>
						<time>2022-06-18T08:46:20Z</time>
					</trkpt>
					<trkpt lat="45.649530" lon="4.387450">
						<ele>570</ele>
						<time>2022-06-18T08:47:04Z</time>
					</trkpt>
					<trkpt lat="45.649420" lon="4.387580">
						<ele>571</ele>
						<time>2022-06-18T08:47:23Z</time>
					</trkpt>
					<trkpt lat="45.649250" lon="4.387700">
						<ele>574</ele>
						<time>2022-06-18T08:47:48Z</time>
					</trkpt>
					<trkpt lat="45.649220" lon="4.387850">
						<ele>575</ele>
						<time>2022-06-18T08:48:03Z</time>
					</trkpt>
					<trkpt lat="45.649210" lon="4.387860">
						<ele>575</ele>
						<time>2022-06-18T08:48:04Z</time>
					</trkpt>
					<trkpt lat="45.649420" lon="4.387860">
						<ele>573</ele>
						<time>2022-06-18T08:48:32Z</time>
					</trkpt>
					<trkpt lat="45.649610" lon="4.387920">
						<ele>571</ele>
						<time>2022-06-18T08:48:58Z</time>
					</trkpt>
					<trkpt lat="45.649750" lon="4.388090">
						<ele>571</ele>
						<time>2022-06-18T08:49:23Z</time>
					</trkpt>
					<trkpt lat="45.650110" lon="4.388650">
						<ele>571</ele>
						<time>2022-06-18T08:50:34Z</time>
					</trkpt>
					<trkpt lat="45.650360" lon="4.389020">
						<ele>571</ele>
						<time>2022-06-18T08:51:22Z</time>
					</trkpt>
					<trkpt lat="45.650580" lon="4.389270">
						<ele>570</ele>
						<time>2022-06-18T08:51:59Z</time>
					</trkpt>
					<trkpt lat="45.650910" lon="4.389480">
						<ele>570</ele>
						<time>2022-06-18T08:52:47Z</time>
					</trkpt>
					<trkpt lat="45.651340" lon="4.389840">
						<ele>572</ele>
						<time>2022-06-18T08:53:54Z</time>
					</trkpt>
					<trkpt lat="45.651460" lon="4.389960">
						<ele>572</ele>
						<time>2022-06-18T08:54:13Z</time>
					</trkpt>
					<trkpt lat="45.651840" lon="4.390520">
						<ele>573</ele>
						<time>2022-06-18T08:55:26Z</time>
					</trkpt>
					<trkpt lat="45.652180" lon="4.391100">
						<ele>574</ele>
						<time>2022-06-18T08:56:37Z</time>
					</trkpt>
					<trkpt lat="45.652330" lon="4.391330">
						<ele>574</ele>
						<time>2022-06-18T08:57:06Z</time>
					</trkpt>
					<trkpt lat="45.652650" lon="4.391700">
						<ele>574</ele>
						<time>2022-06-18T08:58:01Z</time>
					</trkpt>
					<trkpt lat="45.652980" lon="4.392010">
						<ele>577</ele>
						<time>2022-06-18T08:58:54Z</time>
					</trkpt>
					<trkpt lat="45.653620" lon="4.392530">
						<ele>576</ele>
						<time>2022-06-18T09:00:32Z</time>
					</trkpt>
					<trkpt lat="45.653690" lon="4.392640">
						<ele>576</ele>
						<time>2022-06-18T09:00:46Z</time>
					</trkpt>
					<trkpt lat="45.653900" lon="4.392780">
						<ele>575</ele>
						<time>2022-06-18T09:01:17Z</time>
					</trkpt>
					<trkpt lat="45.654350" lon="4.393210">
						<ele>572</ele>
						<time>2022-06-18T09:02:29Z</time>
					</trkpt>
					<trkpt lat="45.654490" lon="4.393270">
						<ele>570</ele>
						<time>2022-06-18T09:02:48Z</time>
					</trkpt>
					<trkpt lat="45.654900" lon="4.393310">
						<ele>565</ele>
						<time>2022-06-18T09:03:43Z</time>
					</trkpt>
					<trkpt lat="45.655400" lon="4.393440">
						<ele>562</ele>
						<time>2022-06-18T09:04:51Z</time>
					</trkpt>
					<trkpt lat="45.655580" lon="4.393460">
						<ele>561</ele>
						<time>2022-06-18T09:05:15Z</time>
					</trkpt>
					<trkpt lat="45.656570" lon="4.393380">
						<ele>553</ele>
						<time>2022-06-18T09:07:28Z</time>
					</trkpt>
					<trkpt lat="45.657100" lon="4.393440">
						<ele>549</ele>
						<time>2022-06-18T09:08:38Z</time>
					</trkpt>
					<trkpt lat="45.657270" lon="4.393490">
						<ele>547</ele>
						<time>2022-06-18T09:09:02Z</time>
					</trkpt>
					<trkpt lat="45.657530" lon="4.393670">
						<ele>545</ele>
						<time>2022-06-18T09:09:40Z</time>
					</trkpt>
					<trkpt lat="45.657890" lon="4.394120">
						<ele>543</ele>
						<time>2022-06-18T09:10:44Z</time>
					</trkpt>
					<trkpt lat="45.658010" lon="4.394240">
						<ele>543</ele>
						<time>2022-06-18T09:11:04Z</time>
					</trkpt>
					<trkpt lat="45.658060" lon="4.394260">
						<ele>543</ele>
						<time>2022-06-18T09:11:10Z</time>
					</trkpt>
					<trkpt lat="45.658090" lon="4.394270">
						<ele>543</ele>
						<time>2022-06-18T09:11:15Z</time>
					</trkpt>
					<trkpt lat="45.658170" lon="4.394270">
						<ele>543</ele>
						<time>2022-06-18T09:11:25Z</time>
					</trkpt>
					<trkpt lat="45.658390" lon="4.394220">
						<ele>541</ele>
						<time>2022-06-18T09:11:55Z</time>
					</trkpt>
					<trkpt lat="45.658790" lon="4.394210">
						<ele>539</ele>
						<time>2022-06-18T09:12:48Z</time>
					</trkpt>
					<trkpt lat="45.659090" lon="4.392880">
						<ele>528</ele>
						<time>2022-06-18T09:14:59Z</time>
					</trkpt>
					<trkpt lat="45.659240" lon="4.392570">
						<ele>524</ele>
						<time>2022-06-18T09:15:34Z</time>
					</trkpt>
					<trkpt lat="45.659340" lon="4.392030">
						<ele>520</ele>
						<time>2022-06-18T09:16:26Z</time>
					</trkpt>
					<trkpt lat="45.659350" lon="4.391270">
						<ele>514</ele>
						<time>2022-06-18T09:17:37Z</time>
					</trkpt>
					<trkpt lat="45.659200" lon="4.390720">
						<ele>511</ele>
						<time>2022-06-18T09:18:32Z</time>
					</trkpt>
					<trkpt lat="45.658790" lon="4.389440">
						<ele>503</ele>
						<time>2022-06-18T09:20:43Z</time>
					</trkpt>
					<trkpt lat="45.658880" lon="4.388740">
						<ele>501</ele>
						<time>2022-06-18T09:21:50Z</time>
					</trkpt>
					<trkpt lat="45.658940" lon="4.388680">
						<ele>501</ele>
						<time>2022-06-18T09:21:59Z</time>
					</trkpt>
					<trkpt lat="45.659310" lon="4.388590">
						<ele>498</ele>
						<time>2022-06-18T09:22:49Z</time>
					</trkpt>
					<trkpt lat="45.659700" lon="4.388330">
						<ele>495</ele>
						<time>2022-06-18T09:23:47Z</time>
					</trkpt>
					<trkpt lat="45.659190" lon="4.387980">
						<ele>501</ele>
						<time>2022-06-18T09:25:02Z</time>
					</trkpt>
					<trkpt lat="45.658640" lon="4.387490">
						<ele>507</ele>
						<time>2022-06-18T09:26:29Z</time>
					</trkpt>
					<trkpt lat="45.658880" lon="4.387050">
						<ele>505</ele>
						<time>2022-06-18T09:27:21Z</time>
					</trkpt>
					<trkpt lat="45.658910" lon="4.386680">
						<ele>504</ele>
						<time>2022-06-18T09:27:56Z</time>
					</trkpt>
					<trkpt lat="45.658790" lon="4.385430">
						<ele>501</ele>
						<time>2022-06-18T09:29:53Z</time>
					</trkpt>
					<trkpt lat="45.658690" lon="4.384700">
						<ele>500</ele>
						<time>2022-06-18T09:31:03Z</time>
					</trkpt>
					<trkpt lat="45.658670" lon="4.384550">
						<ele>499</ele>
						<time>2022-06-18T09:31:17Z</time>
					</trkpt>
					<trkpt lat="45.658400" lon="4.384700">
						<ele>504</ele>
						<time>2022-06-18T09:31:56Z</time>
					</trkpt>
					<trkpt lat="45.658270" lon="4.384630">
						<ele>505</ele>
						<time>2022-06-18T09:32:14Z</time>
					</trkpt>
					<trkpt lat="45.658060" lon="4.384450">
						<ele>509</ele>
						<time>2022-06-18T09:32:47Z</time>
					</trkpt>
					<trkpt lat="45.657760" lon="4.384080">
						<ele>513</ele>
						<time>2022-06-18T09:33:40Z</time>
					</trkpt>
					<trkpt lat="45.657460" lon="4.383770">
						<ele>517</ele>
						<time>2022-06-18T09:34:29Z</time>
					</trkpt>
					<trkpt lat="45.657300" lon="4.383440">
						<ele>519</ele>
						<time>2022-06-18T09:35:06Z</time>
					</trkpt>
					<trkpt lat="45.657070" lon="4.383090">
						<ele>522</ele>
						<time>2022-06-18T09:35:51Z</time>
					</trkpt>
					<trkpt lat="45.656720" lon="4.383180">
						<ele>530</ele>
						<time>2022-06-18T09:36:39Z</time>
					</trkpt>
					<trkpt lat="45.656620" lon="4.382740">
						<ele>531</ele>
						<time>2022-06-18T09:37:22Z</time>
					</trkpt>
					<trkpt lat="45.656420" lon="4.382110">
						<ele>535</ele>
						<time>2022-06-18T09:38:26Z</time>
					</trkpt>
					<trkpt lat="45.656220" lon="4.381560">
						<ele>540</ele>
						<time>2022-06-18T09:39:24Z</time>
					</trkpt>
					<trkpt lat="45.656050" lon="4.381160">
						<ele>544</ele>
						<time>2022-06-18T09:40:08Z</time>
					</trkpt>
					<trkpt lat="45.655900" lon="4.380920">
						<ele>548</ele>
						<time>2022-06-18T09:40:38Z</time>
					</trkpt>
					<trkpt lat="45.655760" lon="4.380800">
						<ele>551</ele>
						<time>2022-06-18T09:41:00Z</time>
					</trkpt>
					<trkpt lat="45.654700" lon="4.380050">
						<ele>563</ele>
						<time>2022-06-18T09:43:38Z</time>
					</trkpt>
					<trkpt lat="45.654410" lon="4.379740">
						<ele>565</ele>
						<time>2022-06-18T09:44:26Z</time>
					</trkpt>
					<trkpt lat="45.653500" lon="4.379120">
						<ele>566</ele>
						<time>2022-06-18T09:46:40Z</time>
					</trkpt>
					</trkseg>
				</trk>
			</gpx>